sensor_id;sensor_type;location;lat;lon;timestamp;temperature;humidity
12125;DHT22;6126;57.908;16.490;2023-07-13T00:02:15;15.50;91.40
12125;DHT22;6126;57.908;16.490;2023-07-13T00:04:41;15.40;91.40
12125;DHT22;6126;57.908;16.490;2023-07-13T00:07:08;15.50;91.50
12125;DHT22;6126;57.908;16.490;2023-07-13T00:09:34;15.40;91.50
12125;DHT22;6126;57.908;16.490;2023-07-13T00:12:01;15.70;91.60
12125;DHT22;6126;57.908;16.490;2023-07-13T00:14:29;15.50;91.50
12125;DHT22;6126;57.908;16.490;2023-07-13T00:16:55;15.40;91.50
12125;DHT22;6126;57.908;16.490;2023-07-13T00:19:21;15.60;91.60
12125;DHT22;6126;57.908;16.490;2023-07-13T00:21:47;15.50;91.50
12125;DHT22;6126;57.908;16.490;2023-07-13T00:24:16;15.40;91.50
12125;DHT22;6126;57.908;16.490;2023-07-13T00:26:48;15.40;91.50
12125;DHT22;6126;57.908;16.490;2023-07-13T00:29:14;15.40;91.30
12125;DHT22;6126;57.908;16.490;2023-07-13T00:31:41;15.40;91.30
12125;DHT22;6126;57.908;16.490;2023-07-13T00:34:09;15.00;91.40
12125;DHT22;6126;57.908;16.490;2023-07-13T00:36:35;15.10;91.70
12125;DHT22;6126;57.908;16.490;2023-07-13T00:39:01;15.00;91.70
12125;DHT22;6126;57.908;16.490;2023-07-13T00:41:29;15.30;91.90
12125;DHT22;6126;57.908;16.490;2023-07-13T00:43:55;15.10;91.90
12125;DHT22;6126;57.908;16.490;2023-07-13T00:46:23;15.10;91.80
12125;DHT22;6126;57.908;16.490;2023-07-13T00:48:57;15.30;91.90
12125;DHT22;6126;57.908;16.490;2023-07-13T00:51:40;15.30;91.80
12125;DHT22;6126;57.908;16.490;2023-07-13T00:54:13;15.20;91.80
12125;DHT22;6126;57.908;16.490;2023-07-13T00:56:47;15.00;91.60
12125;DHT22;6126;57.908;16.490;2023-07-13T00:59:16;15.30;91.70
12125;DHT22;6126;57.908;16.490;2023-07-13T01:01:44;15.30;91.70
12125;DHT22;6126;57.908;16.490;2023-07-13T01:04:11;15.30;91.70
12125;DHT22;6126;57.908;16.490;2023-07-13T01:06:39;15.20;91.70
12125;DHT22;6126;57.908;16.490;2023-07-13T01:09:08;15.40;91.80
12125;DHT22;6126;57.908;16.490;2023-07-13T01:11:35;15.30;91.70
12125;DHT22;6126;57.908;16.490;2023-07-13T01:14:02;15.30;91.80
12125;DHT22;6126;57.908;16.490;2023-07-13T01:16:31;15.10;91.70
12125;DHT22;6126;57.908;16.490;2023-07-13T01:18:59;15.40;91.80
12125;DHT22;6126;57.908;16.490;2023-07-13T01:21:28;15.10;91.70
12125;DHT22;6126;57.908;16.490;2023-07-13T01:23:55;15.40;91.90
12125;DHT22;6126;57.908;16.490;2023-07-13T01:26:22;15.30;91.90
12125;DHT22;6126;57.908;16.490;2023-07-13T01:28:47;15.30;91.80
12125;DHT22;6126;57.908;16.490;2023-07-13T01:31:13;15.20;91.70
12125;DHT22;6126;57.908;16.490;2023-07-13T01:33:40;15.30;91.80
12125;DHT22;6126;57.908;16.490;2023-07-13T01:36:08;15.00;91.70
12125;DHT22;6126;57.908;16.490;2023-07-13T01:38:35;15.30;92.20
12125;DHT22;6126;57.908;16.490;2023-07-13T01:41:02;15.10;91.70
12125;DHT22;6126;57.908;16.490;2023-07-13T01:43:29;15.30;91.80
12125;DHT22;6126;57.908;16.490;2023-07-13T01:45:55;15.40;91.90
12125;DHT22;6126;57.908;16.490;2023-07-13T01:48:21;15.00;91.70
12125;DHT22;6126;57.908;16.490;2023-07-13T01:50:47;15.30;91.90
12125;DHT22;6126;57.908;16.490;2023-07-13T01:53:13;15.20;91.90
12125;DHT22;6126;57.908;16.490;2023-07-13T01:55:39;15.10;91.70
12125;DHT22;6126;57.908;16.490;2023-07-13T01:58:05;15.00;91.60
12125;DHT22;6126;57.908;16.490;2023-07-13T02:00:32;14.70;91.60
12125;DHT22;6126;57.908;16.490;2023-07-13T02:02:58;14.40;91.60
12125;DHT22;6126;57.908;16.490;2023-07-13T02:05:24;14.30;91.70
12125;DHT22;6126;57.908;16.490;2023-07-13T02:07:50;14.40;91.90
12125;DHT22;6126;57.908;16.490;2023-07-13T02:10:17;14.10;91.80
12125;DHT22;6126;57.908;16.490;2023-07-13T02:12:43;13.90;91.90
12125;DHT22;6126;57.908;16.490;2023-07-13T02:15:10;14.10;92.10
12125;DHT22;6126;57.908;16.490;2023-07-13T02:17:36;13.90;92.10
12125;DHT22;6126;57.908;16.490;2023-07-13T02:20:03;14.00;92.20
12125;DHT22;6126;57.908;16.490;2023-07-13T02:22:30;14.00;92.20
12125;DHT22;6126;57.908;16.490;2023-07-13T02:24:56;13.80;92.10
12125;DHT22;6126;57.908;16.490;2023-07-13T02:27:22;13.80;92.20
12125;DHT22;6126;57.908;16.490;2023-07-13T02:29:47;13.60;92.20
12125;DHT22;6126;57.908;16.490;2023-07-13T02:32:17;13.80;92.60
12125;DHT22;6126;57.908;16.490;2023-07-13T02:34:43;13.80;92.30
12125;DHT22;6126;57.908;16.490;2023-07-13T02:37:09;13.60;92.20
12125;DHT22;6126;57.908;16.490;2023-07-13T02:39:35;13.70;92.30
12125;DHT22;6126;57.908;16.490;2023-07-13T02:42:01;13.60;92.30
12125;DHT22;6126;57.908;16.490;2023-07-13T02:44:27;13.50;92.30
12125;DHT22;6126;57.908;16.490;2023-07-13T02:46:53;13.50;92.30
12125;DHT22;6126;57.908;16.490;2023-07-13T02:49:19;13.50;92.40
12125;DHT22;6126;57.908;16.490;2023-07-13T02:51:45;13.60;92.50
12125;DHT22;6126;57.908;16.490;2023-07-13T02:54:11;13.60;92.50
12125;DHT22;6126;57.908;16.490;2023-07-13T02:56:39;13.60;92.50
12125;DHT22;6126;57.908;16.490;2023-07-13T02:59:05;13.70;92.60
12125;DHT22;6126;57.908;16.490;2023-07-13T03:01:31;13.90;92.70
12125;DHT22;6126;57.908;16.490;2023-07-13T03:03:58;13.90;92.60
12125;DHT22;6126;57.908;16.490;2023-07-13T03:06:24;13.80;92.50
12125;DHT22;6126;57.908;16.490;2023-07-13T03:08:50;14.10;92.50
12125;DHT22;6126;57.908;16.490;2023-07-13T03:11:18;14.20;92.50
12125;DHT22;6126;57.908;16.490;2023-07-13T03:13:45;14.10;92.50
12125;DHT22;6126;57.908;16.490;2023-07-13T03:16:12;14.50;92.70
12125;DHT22;6126;57.908;16.490;2023-07-13T03:18:41;14.10;92.50
12125;DHT22;6126;57.908;16.490;2023-07-13T03:21:08;14.20;92.50
12125;DHT22;6126;57.908;16.490;2023-07-13T03:23:34;14.50;92.60
12125;DHT22;6126;57.908;16.490;2023-07-13T03:26:15;14.40;92.50
12125;DHT22;6126;57.908;16.490;2023-07-13T03:28:43;14.60;92.60
12125;DHT22;6126;57.908;16.490;2023-07-13T03:31:21;14.60;92.50
12125;DHT22;6126;57.908;16.490;2023-07-13T03:33:49;14.60;92.50
12125;DHT22;6126;57.908;16.490;2023-07-13T03:36:17;14.90;92.50
12125;DHT22;6126;57.908;16.490;2023-07-13T03:38:54;15.00;92.50
12125;DHT22;6126;57.908;16.490;2023-07-13T03:41:23;15.00;92.50
12125;DHT22;6126;57.908;16.490;2023-07-13T03:43:50;15.10;92.50
12125;DHT22;6126;57.908;16.490;2023-07-13T03:46:17;15.10;92.50
12125;DHT22;6126;57.908;16.490;2023-07-13T03:48:45;15.00;92.40
12125;DHT22;6126;57.908;16.490;2023-07-13T03:51:13;14.80;92.40
12125;DHT22;6126;57.908;16.490;2023-07-13T03:53:42;15.10;92.50
12125;DHT22;6126;57.908;16.490;2023-07-13T03:56:09;15.20;92.50
12125;DHT22;6126;57.908;16.490;2023-07-13T03:58:39;15.30;92.50
12125;DHT22;6126;57.908;16.490;2023-07-13T04:01:07;15.00;92.40
12125;DHT22;6126;57.908;16.490;2023-07-13T04:03:35;15.20;92.40
12125;DHT22;6126;57.908;16.490;2023-07-13T04:06:05;15.20;92.40
12125;DHT22;6126;57.908;16.490;2023-07-13T04:08:34;15.30;92.40
12125;DHT22;6126;57.908;16.490;2023-07-13T04:11:02;15.60;92.30
12125;DHT22;6126;57.908;16.490;2023-07-13T04:13:29;15.60;92.20
12125;DHT22;6126;57.908;16.490;2023-07-13T04:15:55;15.50;92.10
12125;DHT22;6126;57.908;16.490;2023-07-13T04:18:22;15.80;92.20
12125;DHT22;6126;57.908;16.490;2023-07-13T04:20:49;15.90;92.20
12125;DHT22;6126;57.908;16.490;2023-07-13T04:23:16;15.80;92.20
12125;DHT22;6126;57.908;16.490;2023-07-13T04:25:47;15.70;92.30
12125;DHT22;6126;57.908;16.490;2023-07-13T04:28:19;16.50;92.40
12125;DHT22;6126;57.908;16.490;2023-07-13T04:30:46;16.80;92.30
12125;DHT22;6126;57.908;16.490;2023-07-13T04:33:12;18.00;92.00
12125;DHT22;6126;57.908;16.490;2023-07-13T04:35:38;19.40;91.00
12125;DHT22;6126;57.908;16.490;2023-07-13T04:38:04;20.20;88.70
12125;DHT22;6126;57.908;16.490;2023-07-13T04:40:31;20.10;87.90
12125;DHT22;6126;57.908;16.490;2023-07-13T04:42:57;19.80;87.70
12125;DHT22;6126;57.908;16.490;2023-07-13T04:45:23;19.90;88.60
12125;DHT22;6126;57.908;16.490;2023-07-13T04:47:50;20.60;87.70
12125;DHT22;6126;57.908;16.490;2023-07-13T04:50:16;21.20;86.00
12125;DHT22;6126;57.908;16.490;2023-07-13T04:52:46;21.40;84.90
12125;DHT22;6126;57.908;16.490;2023-07-13T04:55:13;21.20;84.70
12125;DHT22;6126;57.908;16.490;2023-07-13T04:57:39;20.80;85.00
12125;DHT22;6126;57.908;16.490;2023-07-13T05:00:05;20.50;85.90
12125;DHT22;6126;57.908;16.490;2023-07-13T05:02:33;20.00;86.50
12125;DHT22;6126;57.908;16.490;2023-07-13T05:04:59;19.60;87.30
12125;DHT22;6126;57.908;16.490;2023-07-13T05:07:26;19.30;87.80
12125;DHT22;6126;57.908;16.490;2023-07-13T05:09:52;19.00;88.40
12125;DHT22;6126;57.908;16.490;2023-07-13T05:12:18;18.80;88.70
12125;DHT22;6126;57.908;16.490;2023-07-13T05:14:44;18.60;89.00
12125;DHT22;6126;57.908;16.490;2023-07-13T05:17:10;18.30;89.10
12125;DHT22;6126;57.908;16.490;2023-07-13T05:19:36;18.40;89.50
12125;DHT22;6126;57.908;16.490;2023-07-13T05:22:02;18.30;89.50
12125;DHT22;6126;57.908;16.490;2023-07-13T05:24:29;18.30;89.70
12125;DHT22;6126;57.908;16.490;2023-07-13T05:26:55;17.80;89.40
12125;DHT22;6126;57.908;16.490;2023-07-13T05:29:22;17.90;89.60
12125;DHT22;6126;57.908;16.490;2023-07-13T05:31:48;18.30;90.00
12125;DHT22;6126;57.908;16.490;2023-07-13T05:34:14;18.20;89.90
12125;DHT22;6126;57.908;16.490;2023-07-13T05:36:41;18.30;90.00
12125;DHT22;6126;57.908;16.490;2023-07-13T05:39:07;18.00;89.60
12125;DHT22;6126;57.908;16.490;2023-07-13T05:41:33;18.30;89.90
12125;DHT22;6126;57.908;16.490;2023-07-13T05:43:59;18.30;89.90
12125;DHT22;6126;57.908;16.490;2023-07-13T05:46:25;18.20;89.60
12125;DHT22;6126;57.908;16.490;2023-07-13T05:48:51;18.10;89.60
12125;DHT22;6126;57.908;16.490;2023-07-13T05:51:17;18.30;89.80
12125;DHT22;6126;57.908;16.490;2023-07-13T05:53:43;18.30;89.70
12125;DHT22;6126;57.908;16.490;2023-07-13T05:56:09;18.10;89.40
12125;DHT22;6126;57.908;16.490;2023-07-13T05:58:35;18.20;89.30
12125;DHT22;6126;57.908;16.490;2023-07-13T06:01:09;18.30;89.50
12125;DHT22;6126;57.908;16.490;2023-07-13T06:03:37;18.20;89.40
12125;DHT22;6126;57.908;16.490;2023-07-13T06:06:07;17.80;88.90
12125;DHT22;6126;57.908;16.490;2023-07-13T06:08:34;18.20;89.20
12125;DHT22;6126;57.908;16.490;2023-07-13T06:11:06;18.00;89.10
12125;DHT22;6126;57.908;16.490;2023-07-13T06:13:35;18.20;89.30
12125;DHT22;6126;57.908;16.490;2023-07-13T06:16:02;17.90;89.00
12125;DHT22;6126;57.908;16.490;2023-07-13T06:18:33;18.10;89.20
12125;DHT22;6126;57.908;16.490;2023-07-13T06:20:59;18.00;89.20
12125;DHT22;6126;57.908;16.490;2023-07-13T06:23:25;18.00;89.10
12125;DHT22;6126;57.908;16.490;2023-07-13T06:25:51;18.10;89.10
12125;DHT22;6126;57.908;16.490;2023-07-13T06:28:17;18.20;89.20
12125;DHT22;6126;57.908;16.490;2023-07-13T06:30:43;18.00;88.60
12125;DHT22;6126;57.908;16.490;2023-07-13T06:33:09;18.20;88.90
12125;DHT22;6126;57.908;16.490;2023-07-13T06:35:35;18.10;88.70
12125;DHT22;6126;57.908;16.490;2023-07-13T06:38:01;18.20;88.80
12125;DHT22;6126;57.908;16.490;2023-07-13T06:40:27;18.20;88.70
12125;DHT22;6126;57.908;16.490;2023-07-13T06:42:55;18.10;88.50
12125;DHT22;6126;57.908;16.490;2023-07-13T06:45:21;18.20;88.50
12125;DHT22;6126;57.908;16.490;2023-07-13T06:47:47;18.20;88.30
12125;DHT22;6126;57.908;16.490;2023-07-13T06:50:13;18.50;88.50
12125;DHT22;6126;57.908;16.490;2023-07-13T06:52:39;18.30;88.20
12125;DHT22;6126;57.908;16.490;2023-07-13T06:55:05;18.50;88.30
12125;DHT22;6126;57.908;16.490;2023-07-13T06:57:32;18.80;89.10
12125;DHT22;6126;57.908;16.490;2023-07-13T06:59:58;18.70;88.00
12125;DHT22;6126;57.908;16.490;2023-07-13T07:02:23;18.80;87.80
12125;DHT22;6126;57.908;16.490;2023-07-13T07:04:49;18.80;87.50
12125;DHT22;6126;57.908;16.490;2023-07-13T07:07:15;19.00;87.40
12125;DHT22;6126;57.908;16.490;2023-07-13T07:09:41;19.00;87.30
12125;DHT22;6126;57.908;16.490;2023-07-13T07:12:07;18.60;86.80
12125;DHT22;6126;57.908;16.490;2023-07-13T07:14:33;18.60;87.00
12125;DHT22;6126;57.908;16.490;2023-07-13T07:17:00;18.70;87.10
12125;DHT22;6126;57.908;16.490;2023-07-13T07:19:29;18.80;86.90
12125;DHT22;6126;57.908;16.490;2023-07-13T07:21:55;19.00;86.90
12125;DHT22;6126;57.908;16.490;2023-07-13T07:24:21;18.50;86.20
12125;DHT22;6126;57.908;16.490;2023-07-13T07:26:47;18.80;86.40
12125;DHT22;6126;57.908;16.490;2023-07-13T07:29:13;18.70;86.40
12125;DHT22;6126;57.908;16.490;2023-07-13T07:31:39;18.60;86.20
12125;DHT22;6126;57.908;16.490;2023-07-13T07:34:04;18.90;86.50
12125;DHT22;6126;57.908;16.490;2023-07-13T07:36:32;18.90;87.40
12125;DHT22;6126;57.908;16.490;2023-07-13T07:38:58;18.70;86.50
12125;DHT22;6126;57.908;16.490;2023-07-13T07:41:24;18.50;86.00
12125;DHT22;6126;57.908;16.490;2023-07-13T07:43:50;18.80;85.90
12125;DHT22;6126;57.908;16.490;2023-07-13T07:46:15;18.60;85.50
12125;DHT22;6126;57.908;16.490;2023-07-13T07:48:41;18.80;86.00
12125;DHT22;6126;57.908;16.490;2023-07-13T07:51:07;18.80;86.10
12125;DHT22;6126;57.908;16.490;2023-07-13T07:53:33;18.90;85.70
12125;DHT22;6126;57.908;16.490;2023-07-13T07:55:59;18.70;85.30
12125;DHT22;6126;57.908;16.490;2023-07-13T07:58:25;19.20;85.50
12125;DHT22;6126;57.908;16.490;2023-07-13T08:00:51;19.30;85.10
12125;DHT22;6126;57.908;16.490;2023-07-13T08:03:16;19.40;84.70
12125;DHT22;6126;57.908;16.490;2023-07-13T08:05:42;19.60;84.40
12125;DHT22;6126;57.908;16.490;2023-07-13T08:08:08;19.50;83.90
12125;DHT22;6126;57.908;16.490;2023-07-13T08:10:36;19.60;84.00
12125;DHT22;6126;57.908;16.490;2023-07-13T08:13:03;19.70;83.90
12125;DHT22;6126;57.908;16.490;2023-07-13T08:15:28;19.70;83.60
12125;DHT22;6126;57.908;16.490;2023-07-13T08:17:54;19.80;83.60
12125;DHT22;6126;57.908;16.490;2023-07-13T08:20:20;19.90;83.40
12125;DHT22;6126;57.908;16.490;2023-07-13T08:22:46;20.00;83.10
12125;DHT22;6126;57.908;16.490;2023-07-13T08:25:12;20.10;82.80
12125;DHT22;6126;57.908;16.490;2023-07-13T08:27:38;20.00;82.40
12125;DHT22;6126;57.908;16.490;2023-07-13T08:30:04;20.00;82.50
12125;DHT22;6126;57.908;16.490;2023-07-13T08:32:31;19.90;82.40
12125;DHT22;6126;57.908;16.490;2023-07-13T08:34:57;19.80;82.50
12125;DHT22;6126;57.908;16.490;2023-07-13T08:37:22;19.70;82.70
12125;DHT22;6126;57.908;16.490;2023-07-13T08:39:49;19.80;82.70
12125;DHT22;6126;57.908;16.490;2023-07-13T08:42:27;20.00;82.50
12125;DHT22;6126;57.908;16.490;2023-07-13T08:48:10;20.40;81.50
12125;DHT22;6126;57.908;16.490;2023-07-13T08:53:49;20.60;80.70
12125;DHT22;6126;57.908;16.490;2023-07-13T08:56:25;20.50;80.60
12125;DHT22;6126;57.908;16.490;2023-07-13T08:59:00;20.70;80.60
12125;DHT22;6126;57.908;16.490;2023-07-13T09:04:22;20.90;79.80
12125;DHT22;6126;57.908;16.490;2023-07-13T09:12:26;21.00;79.20
12125;DHT22;6126;57.908;16.490;2023-07-13T09:15:23;21.10;78.80
12125;DHT22;6126;57.908;16.490;2023-07-13T09:17:52;21.20;78.30
12125;DHT22;6126;57.908;16.490;2023-07-13T09:20:31;21.10;78.10
12125;DHT22;6126;57.908;16.490;2023-07-13T09:23:24;21.00;78.20
12125;DHT22;6126;57.908;16.490;2023-07-13T09:26:19;20.80;78.30
12125;DHT22;6126;57.908;16.490;2023-07-13T09:29:11;20.60;78.40
12125;DHT22;6126;57.908;16.490;2023-07-13T09:31:53;20.70;78.70
12125;DHT22;6126;57.908;16.490;2023-07-13T09:34:21;20.90;78.30
12125;DHT22;6126;57.908;16.490;2023-07-13T09:36:47;21.10;77.70
12125;DHT22;6126;57.908;16.490;2023-07-13T09:39:39;21.30;77.20
12125;DHT22;6126;57.908;16.490;2023-07-13T09:42:18;21.40;76.80
12125;DHT22;6126;57.908;16.490;2023-07-13T09:45:07;21.50;76.40
12125;DHT22;6126;57.908;16.490;2023-07-13T09:47:39;21.70;76.20
12125;DHT22;6126;57.908;16.490;2023-07-13T09:50:14;21.80;75.80
12125;DHT22;6126;57.908;16.490;2023-07-13T09:52:48;22.00;75.50
12125;DHT22;6126;57.908;16.490;2023-07-13T09:55:45;22.20;75.00
12125;DHT22;6126;57.908;16.490;2023-07-13T09:58:14;22.30;74.50
12125;DHT22;6126;57.908;16.490;2023-07-13T10:00:58;22.40;74.00
12125;DHT22;6126;57.908;16.490;2023-07-13T10:03:28;22.50;73.90
12125;DHT22;6126;57.908;16.490;2023-07-13T10:06:20;22.50;73.60
12125;DHT22;6126;57.908;16.490;2023-07-13T10:08:49;22.50;73.40
12125;DHT22;6126;57.908;16.490;2023-07-13T10:11:21;22.40;73.30
12125;DHT22;6126;57.908;16.490;2023-07-13T10:14:02;22.30;73.50
12125;DHT22;6126;57.908;16.490;2023-07-13T10:16:35;22.30;73.40
12125;DHT22;6126;57.908;16.490;2023-07-13T10:19:25;22.30;73.10
12125;DHT22;6126;57.908;16.490;2023-07-13T10:22:01;22.30;73.10
12125;DHT22;6126;57.908;16.490;2023-07-13T10:24:38;22.30;72.90
12125;DHT22;6126;57.908;16.490;2023-07-13T10:27:19;22.40;72.60
12125;DHT22;6126;57.908;16.490;2023-07-13T10:33:08;22.60;72.20
12125;DHT22;6126;57.908;16.490;2023-07-13T10:35:39;22.70;71.80
12125;DHT22;6126;57.908;16.490;2023-07-13T10:38:14;22.80;71.40
12125;DHT22;6126;57.908;16.490;2023-07-13T10:41:06;22.90;71.20
12125;DHT22;6126;57.908;16.490;2023-07-13T10:43:43;22.90;71.10
12125;DHT22;6126;57.908;16.490;2023-07-13T10:46:15;22.90;70.90
12125;DHT22;6126;57.908;16.490;2023-07-13T10:48:44;22.90;70.60
12125;DHT22;6126;57.908;16.490;2023-07-13T10:51:17;22.80;70.70
12125;DHT22;6126;57.908;16.490;2023-07-13T10:53:47;22.70;70.60
12125;DHT22;6126;57.908;16.490;2023-07-13T10:56:22;22.60;70.80
12125;DHT22;6126;57.908;16.490;2023-07-13T10:59:13;22.60;70.80
12125;DHT22;6126;57.908;16.490;2023-07-13T11:01:53;22.60;70.50
12125;DHT22;6126;57.908;16.490;2023-07-13T11:04:20;22.60;70.40
12125;DHT22;6126;57.908;16.490;2023-07-13T11:06:50;22.50;70.50
12125;DHT22;6126;57.908;16.490;2023-07-13T11:12:55;22.20;70.70
12125;DHT22;6126;57.908;16.490;2023-07-13T11:15:29;22.00;70.70
12125;DHT22;6126;57.908;16.490;2023-07-13T11:18:02;21.90;71.10
12125;DHT22;6126;57.908;16.490;2023-07-13T11:20:37;21.80;71.20
12125;DHT22;6126;57.908;16.490;2023-07-13T11:23:15;21.80;71.20
12125;DHT22;6126;57.908;16.490;2023-07-13T11:25:45;21.90;71.10
12125;DHT22;6126;57.908;16.490;2023-07-13T11:36:13;22.40;69.60
12125;DHT22;6126;57.908;16.490;2023-07-13T11:41:49;22.80;69.00
12125;DHT22;6126;57.908;16.490;2023-07-13T11:44:20;22.90;68.70
12125;DHT22;6126;57.908;16.490;2023-07-13T11:46:53;23.10;68.50
12125;DHT22;6126;57.908;16.490;2023-07-13T11:49:22;23.10;68.20
12125;DHT22;6126;57.908;16.490;2023-07-13T11:51:51;23.20;68.20
12125;DHT22;6126;57.908;16.490;2023-07-13T11:54:32;23.20;67.90
12125;DHT22;6126;57.908;16.490;2023-07-13T11:59:43;23.30;67.80
12125;DHT22;6126;57.908;16.490;2023-07-13T12:02:19;23.20;67.70
12125;DHT22;6126;57.908;16.490;2023-07-13T12:04:53;23.10;68.00
12125;DHT22;6126;57.908;16.490;2023-07-13T12:07:19;23.00;68.10
12125;DHT22;6126;57.908;16.490;2023-07-13T12:09:46;23.10;68.10
12125;DHT22;6126;57.908;16.490;2023-07-13T12:12:12;23.20;67.70
12125;DHT22;6126;57.908;16.490;2023-07-13T12:14:40;23.30;67.60
12125;DHT22;6126;57.908;16.490;2023-07-13T12:17:23;23.40;67.30
12125;DHT22;6126;57.908;16.490;2023-07-13T12:19:51;23.40;67.20
12125;DHT22;6126;57.908;16.490;2023-07-13T12:22:19;23.20;67.30
12125;DHT22;6126;57.908;16.490;2023-07-13T12:24:47;22.90;67.30
12125;DHT22;6126;57.908;16.490;2023-07-13T12:27:27;22.20;67.90
12125;DHT22;6126;57.908;16.490;2023-07-13T12:30:01;21.40;69.20
12125;DHT22;6126;57.908;16.490;2023-07-13T12:32:31;20.70;70.90
12125;DHT22;6126;57.908;16.490;2023-07-13T12:35:17;20.30;71.80
12125;DHT22;6126;57.908;16.490;2023-07-13T12:37:46;19.70;72.70
12125;DHT22;6126;57.908;16.490;2023-07-13T12:40:17;19.40;73.60
12125;DHT22;6126;57.908;16.490;2023-07-13T12:42:49;19.30;74.50
12125;DHT22;6126;57.908;16.490;2023-07-13T12:45:24;19.50;74.60
12125;DHT22;6126;57.908;16.490;2023-07-13T12:47:57;19.80;74.50
12125;DHT22;6126;57.908;16.490;2023-07-13T12:50:36;20.20;74.10
12125;DHT22;6126;57.908;16.490;2023-07-13T12:53:05;20.40;73.70
12125;DHT22;6126;57.908;16.490;2023-07-13T12:55:53;20.60;73.50
12125;DHT22;6126;57.908;16.490;2023-07-13T12:58:28;20.70;73.40
12125;DHT22;6126;57.908;16.490;2023-07-13T13:00:58;20.70;73.60
12125;DHT22;6126;57.908;16.490;2023-07-13T13:03:30;20.70;73.90
12125;DHT22;6126;57.908;16.490;2023-07-13T13:06:17;20.50;74.00
12125;DHT22;6126;57.908;16.490;2023-07-13T13:08:54;20.50;74.50
12125;DHT22;6126;57.908;16.490;2023-07-13T13:11:24;20.40;74.90
12125;DHT22;6126;57.908;16.490;2023-07-13T13:13:52;20.30;75.00
12125;DHT22;6126;57.908;16.490;2023-07-13T13:16:33;20.40;75.40
12125;DHT22;6126;57.908;16.490;2023-07-13T13:19:23;20.40;75.50
12125;DHT22;6126;57.908;16.490;2023-07-13T13:21:52;20.60;75.50
12125;DHT22;6126;57.908;16.490;2023-07-13T13:24:22;20.70;75.40
12125;DHT22;6126;57.908;16.490;2023-07-13T13:26:51;20.80;75.40
12125;DHT22;6126;57.908;16.490;2023-07-13T13:29:21;20.80;75.60
12125;DHT22;6126;57.908;16.490;2023-07-13T13:31:52;20.80;75.60
12125;DHT22;6126;57.908;16.490;2023-07-13T13:34:20;20.80;75.70
12125;DHT22;6126;57.908;16.490;2023-07-13T13:36:51;20.90;75.60
12125;DHT22;6126;57.908;16.490;2023-07-13T13:39:31;21.10;75.60
12125;DHT22;6126;57.908;16.490;2023-07-13T13:42:00;21.10;75.40
12125;DHT22;6126;57.908;16.490;2023-07-13T13:44:26;21.20;75.30
12125;DHT22;6126;57.908;16.490;2023-07-13T13:46:53;21.30;75.30
12125;DHT22;6126;57.908;16.490;2023-07-13T13:49:23;21.20;75.20
12125;DHT22;6126;57.908;16.490;2023-07-13T13:51:51;21.30;75.40
12125;DHT22;6126;57.908;16.490;2023-07-13T13:54:20;21.30;75.20
12125;DHT22;6126;57.908;16.490;2023-07-13T13:56:48;21.40;75.30
12125;DHT22;6126;57.908;16.490;2023-07-13T13:59:16;21.40;75.10
12125;DHT22;6126;57.908;16.490;2023-07-13T14:01:44;21.50;74.90
12125;DHT22;6126;57.908;16.490;2023-07-13T14:04:16;21.50;74.80
12125;DHT22;6126;57.908;16.490;2023-07-13T14:06:45;21.60;74.70
12125;DHT22;6126;57.908;16.490;2023-07-13T14:09:14;21.60;74.50
12125;DHT22;6126;57.908;16.490;2023-07-13T14:11:42;21.70;74.50
12125;DHT22;6126;57.908;16.490;2023-07-13T14:14:16;21.70;74.40
12125;DHT22;6126;57.908;16.490;2023-07-13T14:16:46;21.80;74.30
12125;DHT22;6126;57.908;16.490;2023-07-13T14:19:18;21.90;74.40
12125;DHT22;6126;57.908;16.490;2023-07-13T14:21:44;22.00;73.90
12125;DHT22;6126;57.908;16.490;2023-07-13T14:24:13;22.10;73.70
12125;DHT22;6126;57.908;16.490;2023-07-13T14:26:40;22.10;73.60
12125;DHT22;6126;57.908;16.490;2023-07-13T14:29:15;22.10;73.30
12125;DHT22;6126;57.908;16.490;2023-07-13T14:31:44;22.20;73.20
12125;DHT22;6126;57.908;16.490;2023-07-13T14:34:11;22.20;73.00
12125;DHT22;6126;57.908;16.490;2023-07-13T14:36:42;22.20;72.90
12125;DHT22;6126;57.908;16.490;2023-07-13T14:39:16;22.20;72.80
12125;DHT22;6126;57.908;16.490;2023-07-13T14:41:45;22.20;72.70
12125;DHT22;6126;57.908;16.490;2023-07-13T14:44:16;22.20;72.70
12125;DHT22;6126;57.908;16.490;2023-07-13T14:46:44;22.30;72.80
12125;DHT22;6126;57.908;16.490;2023-07-13T14:49:18;22.20;72.70
12125;DHT22;6126;57.908;16.490;2023-07-13T14:51:48;22.20;72.70
12125;DHT22;6126;57.908;16.490;2023-07-13T14:54:14;22.10;72.70
12125;DHT22;6126;57.908;16.490;2023-07-13T14:56:40;22.00;72.70
12125;DHT22;6126;57.908;16.490;2023-07-13T14:59:06;22.00;72.80
12125;DHT22;6126;57.908;16.490;2023-07-13T15:01:34;21.90;72.80
12125;DHT22;6126;57.908;16.490;2023-07-13T15:04:02;21.70;72.70
12125;DHT22;6126;57.908;16.490;2023-07-13T15:06:29;21.50;73.00
12125;DHT22;6126;57.908;16.490;2023-07-13T15:08:57;21.30;73.20
12125;DHT22;6126;57.908;16.490;2023-07-13T15:11:23;21.20;73.30
12125;DHT22;6126;57.908;16.490;2023-07-13T15:13:49;21.10;73.40
12125;DHT22;6126;57.908;16.490;2023-07-13T15:16:20;21.00;73.60
12125;DHT22;6126;57.908;16.490;2023-07-13T15:18:49;20.90;73.50
12125;DHT22;6126;57.908;16.490;2023-07-13T15:21:23;21.00;73.60
12125;DHT22;6126;57.908;16.490;2023-07-13T15:23:50;21.00;73.40
12125;DHT22;6126;57.908;16.490;2023-07-13T15:26:18;20.90;73.10
12125;DHT22;6126;57.908;16.490;2023-07-13T15:28:46;20.80;73.10
12125;DHT22;6126;57.908;16.490;2023-07-13T15:33:44;20.80;73.30
12125;DHT22;6126;57.908;16.490;2023-07-13T15:36:09;20.90;73.30
12125;DHT22;6126;57.908;16.490;2023-07-13T15:38:36;21.00;72.70
12125;DHT22;6126;57.908;16.490;2023-07-13T15:41:26;21.00;72.50
12125;DHT22;6126;57.908;16.490;2023-07-13T15:43:56;21.10;72.30
12125;DHT22;6126;57.908;16.490;2023-07-13T15:46:27;21.10;72.20
12125;DHT22;6126;57.908;16.490;2023-07-13T15:48:54;21.10;72.20
12125;DHT22;6126;57.908;16.490;2023-07-13T15:51:27;21.00;72.20
12125;DHT22;6126;57.908;16.490;2023-07-13T15:53:59;21.00;72.20
12125;DHT22;6126;57.908;16.490;2023-07-13T15:56:29;20.90;72.20
12125;DHT22;6126;57.908;16.490;2023-07-13T15:58:58;20.90;72.30
12125;DHT22;6126;57.908;16.490;2023-07-13T16:01:25;20.90;72.40
12125;DHT22;6126;57.908;16.490;2023-07-13T16:03:52;20.90;72.40
12125;DHT22;6126;57.908;16.490;2023-07-13T16:06:28;20.90;72.40
12125;DHT22;6126;57.908;16.490;2023-07-13T16:08:58;20.90;72.40
12125;DHT22;6126;57.908;16.490;2023-07-13T16:11:26;20.90;72.40
12125;DHT22;6126;57.908;16.490;2023-07-13T16:13:54;20.90;72.30
12125;DHT22;6126;57.908;16.490;2023-07-13T16:16:32;20.90;72.30
12125;DHT22;6126;57.908;16.490;2023-07-13T16:19:02;20.90;72.50
12125;DHT22;6126;57.908;16.490;2023-07-13T16:21:33;20.90;72.50
12125;DHT22;6126;57.908;16.490;2023-07-13T16:24:04;21.00;72.50